Mountain View, CA (94041)

11:57 PM PST en Diciembre 07, 2016 (GMT -0800)
| | Change Station

Alt -9999 ft 0.00 °N, 0.00 °E | Updated

Clear
58 ° F
Sensación térmica 58 ° F
N
6
Viento Variable Viento desde SO
Gusts mph

Hoy
Alta -- | Baja -- ° F
--% Posibilidad de precipitaciones
Ayer
Alta -- | Baja -- ° F
Precip. -- pul
Presión 30.09 pul
Visibilidad 10.0 Millas
Nubes Nublado 4500 ft
Punto de rocío 47 ° F
Humedad 67%
Precipitaciones --
Espesor de la nieve No disponible.
7:09 AM 4:50 PM
Cuarto creciente, 61% visible
METAR KNUQ 080656Z AUTO 13009KT 10SM OVC045 10/06 A3008 RMK AO2 SLP190 T01000056
Presión 30.09 pul
Visibilidad 10.0 Millas
Nubes Nublado 4500 ft
Punto de rocío 47 ° F
Humedad 67%
Precipitaciones --
Espesor de la nieve No disponible.
7:09 AM 4:50 PM
Cuarto creciente, 61% visible
METAR KNUQ 080656Z AUTO 13009KT 10SM OVC045 10/06 A3008 RMK AO2 SLP190 T01000056

10-Day Weather Forecast

Almanac

Astronomía

Dec. 07, 2016 Salida Puesta
Hora real
Crepúsculo civil
Crepúsculo náutico
Crepúsculo astronómico
Luna
Horas de luz
Horas de luz
Tomorrow will be .
, % of the Moon is Illuminated

Extremos de hoy

Máximos del estado Bajos del estado

Community

WunderPhotos

Upload Photos

1,956,259 ¡fotos cargadas!

WunderBlog® & News

Nearby

Calidad del aire

  Calidad del aire Índice AQ Contaminante
Not available.

Grosos de nieve

Estación Profundido Altura

Actividad de terremotos

Ciudad Distance Mag. Tiempo y dato
Magnitud mínima muestra es 2,5.

Temperaturas de aguas costeras

Lugar Temperatura

Stations

Estaciones meteorológicas cercanas

Ubicación de la estación Temp. Vientos helados Punto de rocío Humedad Viento Precip. Alt Actualizado Tipo
                   

Watches & Warnings

There are currently no watches in effect.